Time;durP1;ratioP1;P1;durP2;ratioP2;P2;SDS_P1;SDS_P2;PMS_P1;PMS_P2;Temp;Humidity;BMP_temperature;BMP_pressure;BME280_temperature;BME280_humidity;BME280_pressure;Samples;Min_cycle;Max_cycle;Signal;HPM_P1;HPM_P2
2021/06/23 00:00:25;;;;;;;10.63;7.25;;;15.70;95.90;;;;;;5077469;28;20066;-90
2021/06/23 00:02:52;;;;;;;11.10;7.18;;;15.70;95.80;;;;;;5093954;28;20477;-90
2021/06/23 00:05:18;;;;;;;9.73;7.53;;;15.70;95.80;;;;;;5076952;28;20534;-89
2021/06/23 00:07:44;;;;;;;8.88;7.38;;;15.60;95.80;;;;;;5094922;28;20078;-89
2021/06/23 00:10:12;;;;;;;11.38;7.57;;;15.60;96.00;;;;;;5076995;28;20036;-90
2021/06/23 00:12:39;;;;;;;10.68;7.43;;;15.60;96.00;;;;;;5067116;28;20021;-89
2021/06/23 00:15:06;;;;;;;10.05;7.97;;;15.60;96.00;;;;;;5090150;28;20134;-89
2021/06/23 00:17:32;;;;;;;10.07;7.22;;;15.60;96.10;;;;;;5084078;28;20024;-89
2021/06/23 00:19:58;;;;;;;10.88;7.22;;;15.60;96.10;;;;;;5077060;28;20031;-90
2021/06/23 00:22:24;;;;;;;11.77;7.05;;;15.60;96.10;;;;;;5060123;28;20095;-89
2021/06/23 00:24:49;;;;;;;10.88;6.55;;;15.60;96.20;;;;;;5094561;28;20063;-89
2021/06/23 00:27:15;;;;;;;12.43;7.10;;;15.50;96.00;;;;;;5059951;28;20072;-90
2021/06/23 00:29:41;;;;;;;10.43;7.68;;;15.50;96.10;;;;;;5093748;28;20063;-89
2021/06/23 00:32:19;;;;;;;9.63;6.82;;;15.50;96.20;;;;;;5056314;28;20021;-89
2021/06/23 00:34:45;;;;;;;11.82;7.90;;;15.50;96.30;;;;;;5055988;28;20033;-89
2021/06/23 00:37:11;;;;;;;9.55;7.03;;;15.50;96.50;;;;;;5076463;28;20113;-88
2021/06/23 00:39:37;;;;;;;10.68;7.22;;;15.50;96.40;;;;;;5076327;28;20127;-88
2021/06/23 00:42:04;;;;;;;11.38;7.10;;;15.40;96.30;;;;;;5059561;28;20558;-89
2021/06/23 00:44:29;;;;;;;8.43;6.63;;;15.40;96.40;;;;;;5059720;28;20040;-89
2021/06/23 00:46:55;;;;;;;11.95;6.88;;;15.40;96.50;;;;;;5059018;28;20028;-88
2021/06/23 00:49:22;;;;;;;10.75;6.78;;;15.50;96.40;;;;;;5059638;28;20450;-88
2021/06/23 00:51:48;;;;;;;10.30;6.68;;;15.40;96.40;;;;;;5076022;28;20024;-88
2021/06/23 00:54:15;;;;;;;14.88;7.75;;;15.40;96.40;;;;;;5059805;28;20036;-88
2021/06/23 00:56:45;;;;;;;10.38;6.15;;;15.40;96.50;;;;;;5061658;28;20028;-88
2021/06/23 00:59:11;;;;;;;9.77;6.47;;;15.40;96.50;;;;;;5094321;28;20032;-88
2021/06/23 01:01:39;;;;;;;11.48;6.88;;;15.40;96.60;;;;;;5076541;28;20513;-89
2021/06/23 01:04:06;;;;;;;11.38;6.60;;;15.30;96.50;;;;;;5075688;28;20025;-89
2021/06/23 01:06:56;;;;;;;11.80;6.88;;;15.30;96.30;;;;;;5076320;28;20032;-88
2021/06/23 01:09:22;;;;;;;10.10;6.57;;;15.30;96.30;;;;;;5091689;28;20016;-89
2021/06/23 01:12:00;;;;;;;11.63;6.75;;;15.30;96.30;;;;;;5058560;28;20503;-89
2021/06/23 01:14:27;;;;;;;10.38;6.72;;;15.30;96.40;;;;;;5075913;28;20047;-89
2021/06/23 01:16:53;;;;;;;10.32;6.75;;;15.30;96.50;;;;;;5076271;28;20024;-88
2021/06/23 01:19:24;;;;;;;13.20;7.00;;;15.30;96.40;;;;;;5072677;28;20024;-89
2021/06/23 01:21:50;;;;;;;9.90;7.00;;;15.30;96.50;;;;;;5082404;28;20020;-88
2021/06/23 01:24:16;;;;;;;9.65;6.53;;;15.20;96.70;;;;;;5057676;28;20021;-89
2021/06/23 01:26:41;;;;;;;9.05;6.55;;;15.20;96.40;;;;;;5063522;28;20052;-88
2021/06/23 01:29:07;;;;;;;10.38;6.95;;;15.20;96.70;;;;;;5075746;23;20079;-86
2021/06/23 01:31:34;;;;;;;9.65;6.50;;;15.20;96.50;;;;;;5078301;28;20027;-87
2021/06/23 01:34:01;;;;;;;12.20;6.47;;;15.20;96.60;;;;;;5054861;28;20055;-87
2021/06/23 01:36:26;;;;;;;13.38;6.55;;;15.20;96.50;;;;;;5072030;28;20385;-87
2021/06/23 01:39:17;;;;;;;10.25;6.82;;;15.20;96.50;;;;;;5054732;28;20489;-88
2021/06/23 01:41:43;;;;;;;12.63;6.75;;;15.10;96.70;;;;;;5091538;28;20465;-87
2021/06/23 01:44:08;;;;;;;8.98;6.07;;;15.10;96.60;;;;;;5052463;28;20016;-86
2021/06/23 01:46:34;;;;;;;9.32;6.57;;;15.10;96.60;;;;;;5058433;28;20031;-87
2021/06/23 01:49:00;;;;;;;9.95;6.18;;;15.10;96.90;;;;;;5060088;28;20026;-87
2021/06/23 01:51:25;;;;;;;8.60;6.30;;;15.10;96.70;;;;;;5039555;28;20028;-87
2021/06/23 01:53:51;;;;;;;10.38;6.55;;;15.10;96.60;;;;;;5064241;28;20052;-88
2021/06/23 01:56:17;;;;;;;9.90;6.20;;;15.10;96.60;;;;;;5067592;28;20143;-87
2021/06/23 01:58:43;;;;;;;10.55;6.55;;;15.10;96.70;;;;;;5074522;28;20024;-88
2021/06/23 02:01:08;;;;;;;9.75;6.43;;;15.00;96.60;;;;;;5074726;28;20110;-88
2021/06/23 02:03:52;;;;;;;9.25;6.30;;;15.00;96.70;;;;;;5071657;28;20116;-88
2021/06/23 02:06:32;;;;;;;8.35;6.18;;;15.00;96.60;;;;;;5065887;28;20028;-87
2021/06/23 02:09:16;;;;;;;9.93;6.32;;;15.00;96.70;;;;;;5078323;28;20020;-88
2021/06/23 02:11:46;;;;;;;13.07;6.32;;;15.00;96.80;;;;;;5074568;28;20031;-88
2021/06/23 02:14:37;;;;;;;13.55;6.85;;;15.00;96.70;;;;;;5092468;28;20043;-87
2021/06/23 02:17:07;;;;;;;10.73;6.50;;;15.00;96.70;;;;;;5073404;28;20047;-88
2021/06/23 02:19:37;;;;;;;13.30;6.20;;;15.00;96.80;;;;;;5061714;28;20012;-87
2021/06/23 02:22:04;;;;;;;9.13;6.45;;;14.90;96.70;;;;;;5078357;28;20077;-88
2021/06/23 02:24:30;;;;;;;11.02;5.88;;;14.90;96.80;;;;;;5081100;28;20056;-87
2021/06/23 02:26:56;;;;;;;8.10;6.20;;;14.90;96.80;;;;;;5080922;28;20024;-88
2021/06/23 02:29:22;;;;;;;11.85;6.45;;;14.90;96.80;;;;;;5080597;28;20058;-88
2021/06/23 02:31:51;;;;;;;10.50;6.40;;;14.90;96.90;;;;;;5064126;28;20036;-87
2021/06/23 02:34:17;;;;;;;8.40;6.03;;;14.90;96.80;;;;;;5077881;28;20030;-87
2021/06/23 02:36:43;;;;;;;10.48;6.32;;;14.90;96.70;;;;;;5077846;28;20032;-87
2021/06/23 02:39:10;;;;;;;7.75;5.63;;;14.80;96.80;;;;;;5082827;28;20023;-87
2021/06/23 02:41:36;;;;;;;6.97;5.78;;;14.90;96.90;;;;;;5041967;28;20019;-87
2021/06/23 02:44:03;;;;;;;8.93;5.93;;;14.90;96.90;;;;;;5050912;28;20077;-87
2021/06/23 02:46:29;;;;;;;9.90;6.28;;;14.80;97.00;;;;;;5063829;28;20016;-87
2021/06/23 02:48:58;;;;;;;8.32;6.00;;;14.80;96.90;;;;;;5083204;28;20016;-88
2021/06/23 02:51:25;;;;;;;9.88;6.25;;;14.80;96.80;;;;;;5089044;28;20020;-87
2021/06/23 02:53:52;;;;;;;11.75;6.68;;;14.80;96.80;;;;;;5033275;28;20115;-88
2021/06/23 02:56:20;;;;;;;8.45;6.28;;;14.80;96.90;;;;;;5064209;28;20032;-88
2021/06/23 02:58:47;;;;;;;9.23;5.80;;;14.80;96.80;;;;;;5092702;28;20031;-87
2021/06/23 03:01:14;;;;;;;10.50;6.18;;;14.80;96.90;;;;;;5048600;28;20029;-88
2021/06/23 03:03:40;;;;;;;12.80;6.47;;;14.70;96.80;;;;;;5066217;28;20381;-87
2021/06/23 03:06:07;;;;;;;11.93;6.53;;;14.70;96.90;;;;;;5080543;28;20146;-88
2021/06/23 03:08:34;;;;;;;10.13;6.57;;;14.70;96.90;;;;;;5080606;28;20038;-88
2021/06/23 03:11:00;;;;;;;9.63;6.03;;;14.70;96.90;;;;;;5047031;28;20024;-87
2021/06/23 03:13:26;;;;;;;11.13;6.32;;;14.70;96.90;;;;;;5080640;28;20508;-88
2021/06/23 03:15:52;;;;;;;12.38;7.25;;;14.70;97.00;;;;;;5080360;28;20027;-88
2021/06/23 03:18:17;;;;;;;11.38;7.10;;;14.70;97.00;;;;;;5072200;28;20020;-87
2021/06/23 03:20:43;;;;;;;10.82;6.68;;;14.70;96.90;;;;;;5074391;28;20031;-87
2021/06/23 03:23:09;;;;;;;11.32;6.45;;;14.70;96.90;;;;;;5066690;28;20524;-88
2021/06/23 03:25:35;;;;;;;8.18;6.35;;;14.70;97.00;;;;;;5068202;28;20028;-87
2021/06/23 03:28:03;;;;;;;9.65;6.72;;;14.60;96.90;;;;;;5078492;28;20024;-87
2021/06/23 03:30:29;;;;;;;9.38;6.63;;;14.60;97.00;;;;;;5069765;28;20467;-88
2021/06/23 03:32:55;;;;;;;11.43;6.85;;;14.70;97.00;;;;;;5058138;28;20036;-87
2021/06/23 03:35:21;;;;;;;11.88;6.50;;;14.60;97.10;;;;;;5060837;28;20024;-87
2021/06/23 03:37:48;;;;;;;10.73;6.55;;;14.60;97.10;;;;;;5074801;28;20028;-88
2021/06/23 03:40:15;;;;;;;8.90;5.95;;;14.60;97.10;;;;;;5077205;28;20016;-88
2021/06/23 03:42:41;;;;;;;8.93;6.30;;;14.60;97.10;;;;;;5073565;28;20081;-87
2021/06/23 03:45:08;;;;;;;9.60;6.28;;;14.60;97.10;;;;;;5045406;28;20020;-87
2021/06/23 03:47:33;;;;;;;11.88;6.68;;;14.60;97.10;;;;;;5063880;28;20375;-87
2021/06/23 03:49:59;;;;;;;10.32;6.22;;;14.60;97.10;;;;;;5091002;28;20024;-88
2021/06/23 03:52:25;;;;;;;9.60;6.25;;;14.60;97.20;;;;;;5077216;28;20028;-87
2021/06/23 03:54:51;;;;;;;10.15;6.47;;;14.60;97.20;;;;;;5060057;28;20031;-87
2021/06/23 03:57:16;;;;;;;8.05;6.18;;;14.60;97.20;;;;;;5049665;28;20110;-88
2021/06/23 03:59:42;;;;;;;9.80;6.40;;;14.60;97.20;;;;;;5080430;28;20534;-88
2021/06/23 04:02:07;;;;;;;10.75;6.38;;;14.50;97.20;;;;;;5063398;28;20050;-88
2021/06/23 04:04:33;;;;;;;9.07;6.20;;;14.50;97.20;;;;;;5063492;28;20024;-88
2021/06/23 04:06:59;;;;;;;9.77;6.30;;;14.50;97.20;;;;;;5049769;28;20033;-88
2021/06/23 04:09:41;;;;;;;8.80;6.38;;;14.50;97.10;;;;;;5052091;28;20074;-88
2021/06/23 04:12:09;;;;;;;8.20;5.97;;;14.50;97.10;;;;;;5093361;28;20028;-88
2021/06/23 04:14:35;;;;;;;12.10;6.90;;;14.50;97.10;;;;;;5079862;28;20031;-87
2021/06/23 04:17:01;;;;;;;7.57;5.95;;;14.50;97.10;;;;;;5050972;28;20039;-87
2021/06/23 04:19:26;;;;;;;12.82;6.13;;;14.50;97.20;;;;;;5059703;28;20021;-88
2021/06/23 04:21:52;;;;;;;9.77;6.05;;;14.50;97.20;;;;;;5059722;28;20111;-88
2021/06/23 04:24:18;;;;;;;9.93;6.65;;;14.50;97.30;;;;;;5059387;28;20081;-87
2021/06/23 04:26:44;;;;;;;9.13;6.10;;;14.50;97.50;;;;;;5076257;28;20016;-87
2021/06/23 04:29:13;;;;;;;8.73;5.53;;;14.50;97.30;;;;;;5042758;28;20497;-87
2021/06/23 04:31:39;;;;;;;7.15;5.57;;;14.50;97.30;;;;;;5076221;28;20346;-88
2021/06/23 04:34:05;;;;;;;8.77;5.80;;;14.50;97.30;;;;;;5059344;28;20043;-88
2021/06/23 04:36:31;;;;;;;9.68;5.65;;;14.50;97.40;;;;;;5059515;28;20020;-88
2021/06/23 04:38:57;;;;;;;7.30;5.13;;;14.50;97.40;;;;;;5055876;28;20499;-88
2021/06/23 04:41:22;;;;;;;11.32;5.82;;;14.50;97.40;;;;;;5076600;28;20028;-88
2021/06/23 04:43:48;;;;;;;7.05;5.20;;;14.50;97.50;;;;;;5075803;28;20034;-87
2021/06/23 04:46:14;;;;;;;10.18;5.20;;;14.50;97.50;;;;;;5062535;28;20461;-88
2021/06/23 04:48:39;;;;;;;8.68;5.70;;;14.50;97.50;;;;;;5061200;28;20028;-88
2021/06/23 04:51:05;;;;;;;8.60;5.50;;;14.50;97.50;;;;;;5059023;28;20028;-87
2021/06/23 04:53:31;;;;;;;10.02;5.30;;;14.50;97.50;;;;;;5075898;28;21056;-88
2021/06/23 04:55:57;;;;;;;8.95;5.82;;;14.50;97.40;;;;;;5055566;28;20032;-88
2021/06/23 04:58:24;;;;;;;9.02;5.35;;;14.40;97.70;;;;;;5060123;28;20114;-87
2021/06/23 05:00:50;;;;;;;8.50;4.95;;;14.50;97.50;;;;;;5062885;28;20113;-87
2021/06/23 05:03:16;;;;;;;8.95;5.25;;;14.50;97.50;;;;;;5080172;28;20408;-87
2021/06/23 05:05:41;;;;;;;10.38;6.13;;;14.50;97.50;;;;;;5055423;28;20021;-87
2021/06/23 05:08:07;;;;;;;8.93;5.05;;;14.40;97.50;;;;;;5055472;28;20028;-87
2021/06/23 05:10:34;;;;;;;10.52;5.82;;;14.40;97.50;;;;;;5056041;28;20036;-88
2021/06/23 05:12:59;;;;;;;9.45;5.53;;;14.40;97.50;;;;;;5075439;28;20051;-87
2021/06/23 05:15:26;;;;;;;9.68;5.55;;;14.50;97.50;;;;;;5058421;28;20089;-87
2021/06/23 05:17:52;;;;;;;10.55;6.15;;;14.40;97.60;;;;;;5056790;28;20025;-87
2021/06/23 05:20:18;;;;;;;8.30;5.63;;;14.40;97.60;;;;;;5067588;28;20094;-88
2021/06/23 05:22:48;;;;;;;10.63;5.40;;;14.50;97.60;;;;;;5038706;28;20439;-87
2021/06/23 05:25:15;;;;;;;10.55;5.97;;;14.50;97.60;;;;;;5061732;28;20107;-88
2021/06/23 05:27:40;;;;;;;11.07;5.75;;;14.50;97.60;;;;;;5046126;28;20033;-87
2021/06/23 05:30:06;;;;;;;9.15;5.80;;;14.50;97.60;;;;;;5052294;28;20050;-87
2021/06/23 05:32:33;;;;;;;8.50;5.63;;;14.50;97.60;;;;;;5072816;28;20028;-88
2021/06/23 05:34:58;;;;;;;9.05;5.95;;;14.50;97.60;;;;;;5040590;28;20482;-87
2021/06/23 05:37:24;;;;;;;9.60;5.80;;;14.50;97.70;;;;;;5049883;28;20028;-87
2021/06/23 05:39:50;;;;;;;11.50;5.90;;;14.50;97.70;;;;;;5069144;28;20028;-87
2021/06/23 05:42:15;;;;;;;7.82;5.47;;;14.50;97.70;;;;;;5074910;28;20093;-87
2021/06/23 05:44:41;;;;;;;10.02;5.75;;;14.50;97.70;;;;;;5078490;28;20079;-87
2021/06/23 05:47:19;;;;;;;13.23;6.35;;;14.50;97.80;;;;;;5058218;28;20024;-87
2021/06/23 05:49:44;;;;;;;10.13;5.68;;;14.50;97.80;;;;;;5073699;28;20032;-87
2021/06/23 05:52:10;;;;;;;8.25;5.63;;;14.60;97.80;;;;;;5067919;28;20070;-86
2021/06/23 05:54:36;;;;;;;13.55;5.93;;;14.60;97.90;;;;;;5041413;28;20031;-87
2021/06/23 05:57:01;;;;;;;12.20;6.18;;;14.60;97.90;;;;;;5057798;28;20024;-87
2021/06/23 05:59:29;;;;;;;10.93;6.38;;;14.60;97.90;;;;;;5068787;28;20477;-87
2021/06/23 06:01:55;;;;;;;7.80;5.57;;;14.60;98.00;;;;;;5056931;28;20029;-87
2021/06/23 06:04:20;;;;;;;7.03;5.80;;;14.70;98.00;;;;;;5070430;28;20047;-87
2021/06/23 06:06:46;;;;;;;10.95;5.85;;;14.70;98.10;;;;;;5070773;28;20153;-87
2021/06/23 06:09:12;;;;;;;8.88;5.25;;;14.70;98.10;;;;;;5067266;28;20478;-87
2021/06/23 06:11:38;;;;;;;7.68;4.82;;;14.70;98.10;;;;;;5059862;28;20032;-87
2021/06/23 06:14:03;;;;;;;11.43;5.15;;;14.70;98.10;;;;;;5077025;28;20027;-87
2021/06/23 06:16:29;;;;;;;7.95;4.93;;;14.80;98.20;;;;;;5066685;28;20028;-87
2021/06/23 06:18:56;;;;;;;6.47;4.55;;;14.80;98.20;;;;;;5076471;28;20030;-87
2021/06/23 06:21:23;;;;;;;8.25;4.85;;;14.80;98.20;;;;;;5065075;28;20028;-87
2021/06/23 06:23:48;;;;;;;8.70;4.82;;;14.90;98.20;;;;;;5093357;28;20042;-87
2021/06/23 06:26:14;;;;;;;9.02;4.20;;;14.90;98.20;;;;;;5089487;28;20028;-87
2021/06/23 06:28:40;;;;;;;8.50;4.18;;;14.90;98.20;;;;;;5068249;28;20400;-87
2021/06/23 06:31:06;;;;;;;7.70;4.35;;;14.90;98.20;;;;;;5094091;28;20041;-87
2021/06/23 06:33:51;;;;;;;8.00;4.40;;;14.90;98.20;;;;;;5068448;28;20508;-88
2021/06/23 06:36:18;;;;;;;7.53;3.78;;;14.90;98.20;;;;;;5074884;28;20236;-87
2021/06/23 06:38:44;;;;;;;7.85;3.92;;;14.90;98.10;;;;;;5064255;28;20028;-87
2021/06/23 06:41:09;;;;;;;11.93;4.53;;;15.00;98.10;;;;;;5050592;28;20023;-87
2021/06/23 06:43:35;;;;;;;10.23;3.90;;;15.00;98.10;;;;;;5092392;28;20024;-87
2021/06/23 06:46:01;;;;;;;6.35;3.58;;;15.00;98.10;;;;;;5040773;28;20482;-87
2021/06/23 06:48:27;;;;;;;8.25;3.80;;;15.00;98.10;;;;;;5093790;28;20059;-87
2021/06/23 06:50:53;;;;;;;8.20;4.00;;;15.00;98.10;;;;;;5077324;28;20024;-87
2021/06/23 06:53:19;;;;;;;7.88;3.67;;;15.00;98.10;;;;;;5077160;28;20027;-86
2021/06/23 06:55:46;;;;;;;7.20;3.40;;;15.00;98.10;;;;;;5094328;28;20036;-87
2021/06/23 06:58:21;;;;;;;6.53;3.53;;;15.10;98.20;;;;;;5075362;28;20377;-87
2021/06/23 07:00:46;;;;;;;7.63;3.90;;;15.10;98.20;;;;;;5053888;28;20067;-88
2021/06/23 07:03:12;;;;;;;8.23;3.88;;;15.10;98.20;;;;;;5073706;28;20473;-87
2021/06/23 07:05:38;;;;;;;7.20;3.85;;;15.10;98.20;;;;;;5063216;28;20032;-87
2021/06/23 07:08:04;;;;;;;7.10;3.80;;;15.10;98.20;;;;;;5094592;28;20028;-87
2021/06/23 07:10:30;;;;;;;8.00;3.53;;;15.10;98.20;;;;;;5080857;28;20114;-88
2021/06/23 07:12:55;;;;;;;5.72;3.25;;;15.10;98.20;;;;;;5077522;28;20498;-88
2021/06/23 07:15:21;;;;;;;5.95;3.08;;;15.20;98.20;;;;;;5059257;28;20028;-87
2021/06/23 07:17:47;;;;;;;5.97;3.58;;;15.20;98.20;;;;;;5080856;28;20023;-88
2021/06/23 07:20:13;;;;;;;6.07;3.53;;;15.20;98.20;;;;;;5066683;28;20028;-87
2021/06/23 07:22:38;;;;;;;8.13;3.42;;;15.20;98.10;;;;;;5074785;28;20024;-88
2021/06/23 07:25:22;;;;;;;5.70;2.90;;;15.20;98.10;;;;;;5074076;28;20072;-87
2021/06/23 07:27:48;;;;;;;5.50;3.13;;;15.30;98.10;;;;;;5057439;28;20041;-88
2021/06/23 07:30:15;;;;;;;6.68;3.30;;;15.30;98.10;;;;;;5056015;23;20059;-89
2021/06/23 07:32:49;;;;;;;7.35;3.50;;;15.30;98.00;;;;;;5052845;28;20536;-89
2021/06/23 07:38:01;;;;;;;8.70;3.40;;;15.30;97.90;;;;;;5066631;28;20039;-88
2021/06/23 07:40:43;;;;;;;5.40;3.08;;;15.30;97.80;;;;;;5075571;28;20071;-89
2021/06/23 07:43:10;;;;;;;7.03;3.35;;;15.30;97.80;;;;;;5028362;28;20017;-88
2021/06/23 07:45:37;;;;;;;6.90;3.47;;;15.30;97.80;;;;;;5058945;28;20052;-88
2021/06/23 07:48:03;;;;;;;7.05;3.88;;;15.30;97.70;;;;;;5057197;28;20393;-89
2021/06/23 07:50:36;;;;;;;6.85;3.15;;;15.40;97.70;;;;;;5040696;28;20035;-89
2021/06/23 07:53:28;;;;;;;6.90;3.22;;;15.40;97.70;;;;;;5055561;28;20024;-89
2021/06/23 07:55:56;;;;;;;5.25;2.88;;;15.40;97.70;;;;;;5073122;28;20028;-89
2021/06/23 08:09:34;;;;;;;6.57;3.40;;;15.60;97.80;;;;;;5046109;28;20055;-89
2021/06/23 08:12:15;;;;;;;6.07;2.88;;;15.60;97.70;;;;;;5077268;28;20111;-90
2021/06/23 08:14:42;;;;;;;5.60;3.22;;;15.60;97.70;;;;;;5058978;28;20032;-88
2021/06/23 08:17:09;;;;;;;5.72;3.15;;;15.70;97.70;;;;;;5075147;28;20164;-89
2021/06/23 08:19:35;;;;;;;6.85;3.38;;;15.70;97.80;;;;;;5062174;28;20021;-90
2021/06/23 08:22:02;;;;;;;7.30;3.60;;;15.80;97.80;;;;;;5037996;28;20028;-89
2021/06/23 08:24:27;;;;;;;7.20;3.25;;;15.80;97.80;;;;;;5056696;28;20024;-88
2021/06/23 08:26:53;;;;;;;8.00;4.43;;;15.90;97.80;;;;;;5053353;28;20039;-90
2021/06/23 08:29:18;;;;;;;8.82;4.00;;;15.90;97.70;;;;;;5080198;28;20489;-89
2021/06/23 08:31:44;;;;;;;6.82;3.45;;;15.90;97.60;;;;;;5048808;28;20474;-88
2021/06/23 08:34:10;;;;;;;6.68;3.63;;;16.00;97.50;;;;;;5055181;28;20025;-89
2021/06/23 08:36:36;;;;;;;7.78;3.75;;;16.00;97.50;;;;;;5047898;28;20047;-89
2021/06/23 08:39:01;;;;;;;6.45;3.00;;;16.00;97.50;;;;;;5070281;28;20029;-89
2021/06/23 08:41:28;;;;;;;8.63;3.40;;;16.00;97.40;;;;;;5039928;28;20040;-89
2021/06/23 08:43:57;;;;;;;5.80;2.70;;;16.00;97.20;;;;;;5056478;28;20027;-88
2021/06/23 08:46:23;;;;;;;10.98;3.45;;;16.10;97.20;;;;;;5055986;28;20016;-89
2021/06/23 08:48:49;;;;;;;7.25;3.22;;;16.10;97.00;;;;;;5065729;28;20024;-89
2021/06/23 08:51:15;;;;;;;5.05;2.70;;;16.10;96.80;;;;;;5057869;28;20121;-91
2021/06/23 08:53:41;;;;;;;7.57;3.20;;;16.10;96.90;;;;;;5059889;28;20040;-90
2021/06/23 08:56:07;;;;;;;5.72;2.85;;;16.20;96.90;;;;;;5079524;28;20036;-90
2021/06/23 08:58:34;;;;;;;6.32;2.60;;;16.20;96.90;;;;;;5038032;28;20017;-90
2021/06/23 09:01:00;;;;;;;7.03;2.90;;;16.20;96.90;;;;;;5039843;28;20032;-90
2021/06/23 09:03:27;;;;;;;5.10;2.80;;;16.30;96.90;;;;;;5077906;28;20518;-90
2021/06/23 09:05:54;;;;;;;3.83;2.80;;;16.30;96.80;;;;;;5064292;28;20423;-90
2021/06/23 09:08:32;;;;;;;5.50;2.80;;;16.30;96.70;;;;;;5061395;28;20028;-90
2021/06/23 09:11:00;;;;;;;5.63;2.63;;;16.30;96.60;;;;;;5056086;28;20477;-89
2021/06/23 09:13:26;;;;;;;5.95;2.65;;;16.40;96.70;;;;;;5079592;28;20024;-89
2021/06/23 09:16:00;;;;;;;5.43;2.80;;;16.40;96.70;;;;;;5064093;28;20032;-90
2021/06/23 09:18:35;;;;;;;5.47;2.42;;;16.40;96.70;;;;;;5060886;28;20446;-89
2021/06/23 09:21:12;;;;;;;4.78;2.80;;;16.50;96.70;;;;;;5081479;28;20027;-89
2021/06/23 09:23:48;;;;;;;5.10;2.60;;;16.50;96.70;;;;;;5055973;28;20055;-90
2021/06/23 09:26:23;;;;;;;5.93;2.75;;;16.50;96.50;;;;;;5069038;28;20074;-90
2021/06/23 09:29:04;;;;;;;4.03;2.35;;;16.50;96.50;;;;;;5065552;28;20056;-90
2021/06/23 09:32:04;;;;;;;7.68;2.40;;;16.60;96.50;;;;;;5078111;28;20047;-89
2021/06/23 09:34:33;;;;;;;4.65;2.15;;;16.60;96.40;;;;;;5035901;28;20033;-89
2021/06/23 09:37:00;;;;;;;6.63;2.78;;;16.70;96.30;;;;;;5055476;28;20020;-90
2021/06/23 09:39:28;;;;;;;5.65;2.50;;;16.70;96.20;;;;;;5065611;28;20026;-90
2021/06/23 09:41:54;;;;;;;7.38;3.45;;;16.80;96.10;;;;;;5077025;28;20151;-89
2021/06/23 09:44:23;;;;;;;7.10;3.10;;;16.80;96.00;;;;;;5047298;28;20365;-90
2021/06/23 09:46:50;;;;;;;6.20;2.92;;;16.80;95.90;;;;;;5043953;28;20405;-89
2021/06/23 09:49:27;;;;;;;3.88;2.47;;;16.90;95.80;;;;;;5042228;28;20351;-90
2021/06/23 09:52:17;;;;;;;5.97;2.35;;;16.90;95.60;;;;;;5069609;28;20441;-89
2021/06/23 09:54:52;;;;;;;6.18;2.17;;;16.90;95.50;;;;;;5064924;28;20171;-89
2021/06/23 09:57:18;;;;;;;4.78;2.30;;;17.00;95.40;;;;;;5072264;28;20055;-90
2021/06/23 09:59:50;;;;;;;6.28;2.53;;;17.00;95.40;;;;;;5075460;28;20091;-90
2021/06/23 10:02:29;;;;;;;7.72;2.88;;;17.10;95.40;;;;;;5053165;28;20048;-89
2021/06/23 10:04:57;;;;;;;6.40;2.40;;;17.10;95.00;;;;;;5049492;28;20016;-90
2021/06/23 10:07:42;;;;;;;6.47;2.40;;;17.10;95.00;;;;;;5048156;28;20390;-91
2021/06/23 10:10:10;;;;;;;5.90;2.13;;;17.20;95.10;;;;;;5058991;28;20039;-90
2021/06/23 10:12:36;;;;;;;4.45;2.40;;;17.20;95.10;;;;;;5035863;28;20032;-90
2021/06/23 10:15:02;;;;;;;3.47;2.17;;;17.30;95.00;;;;;;5038587;28;20028;-90
2021/06/23 10:17:28;;;;;;;5.47;2.30;;;17.40;95.10;;;;;;5029866;28;20478;-89
2021/06/23 10:19:54;;;;;;;7.53;2.45;;;17.40;95.00;;;;;;5047419;28;20112;-90
2021/06/23 10:22:20;;;;;;;4.78;2.55;;;17.40;94.90;;;;;;5075017;28;20028;-90
2021/06/23 10:24:52;;;;;;;8.35;3.13;;;17.50;95.00;;;;;;5058448;28;20555;-90
2021/06/23 10:27:20;;;;;;;5.53;2.30;;;17.50;94.90;;;;;;5077382;28;20025;-89
2021/06/23 10:29:51;;;;;;;7.00;2.60;;;17.60;94.70;;;;;;5034949;28;20045;-90
2021/06/23 10:32:18;;;;;;;7.20;2.53;;;17.60;94.30;;;;;;5060684;28;20032;-90
2021/06/23 10:34:44;;;;;;;5.05;2.42;;;17.70;94.40;;;;;;5066672;28;20032;-89
2021/06/23 10:37:12;;;;;;;5.65;2.47;;;17.70;94.50;;;;;;5030656;28;20063;-90
2021/06/23 10:39:39;;;;;;;5.25;2.17;;;17.70;94.50;;;;;;5078767;28;20036;-89
2021/06/23 10:42:06;;;;;;;6.70;3.00;;;17.80;94.50;;;;;;5028758;28;20535;-89
2021/06/23 10:44:36;;;;;;;5.07;2.05;;;17.90;94.60;;;;;;5060947;28;20111;-89
2021/06/23 10:47:06;;;;;;;5.43;2.28;;;17.90;94.60;;;;;;5081169;28;20032;-90
2021/06/23 10:49:39;;;;;;;6.60;2.95;;;17.90;94.50;;;;;;5047607;28;20063;-90
2021/06/23 10:52:34;;;;;;;6.05;2.30;;;18.00;94.40;;;;;;5076872;28;20025;-90
2021/06/23 10:55:08;;;;;;;5.43;2.17;;;18.00;94.10;;;;;;5044748;28;20145;-89
2021/06/23 10:57:44;;;;;;;6.05;2.53;;;18.10;93.90;;;;;;5058815;28;20440;-90
2021/06/23 11:00:10;;;;;;;6.15;2.38;;;18.10;93.50;;;;;;5058947;28;20024;-90
2021/06/23 11:02:41;;;;;;;4.25;2.10;;;18.20;93.60;;;;;;5066983;28;20024;-89
2021/06/23 11:05:33;;;;;;;;;;;18.30;93.50;;;;;;5078716;28;20016;-89
2021/06/23 11:07:59;;;;;;;4.18;2.03;;;18.30;93.10;;;;;;5071245;28;20354;-89
2021/06/23 11:10:31;;;;;;;6.50;2.65;;;18.30;93.20;;;;;;5058321;28;20085;-89
2021/06/23 11:13:06;;;;;;;5.75;2.05;;;18.30;93.10;;;;;;5076112;28;20029;-90
2021/06/23 11:15:31;;;;;;;4.22;2.25;;;18.40;93.00;;;;;;5060567;28;20024;-90
2021/06/23 11:18:15;;;;;;;3.70;2.00;;;18.40;92.80;;;;;;5058103;28;20032;-89
2021/06/23 11:20:42;;;;;;;6.05;2.20;;;18.40;92.70;;;;;;5078102;28;20051;-89
2021/06/23 11:23:46;;;;;;;4.55;2.03;;;18.50;92.70;;;;;;5066219;28;20017;-89
2021/06/23 11:26:21;;;;;;;6.43;2.10;;;18.50;92.20;;;;;;5084830;28;20055;-88
2021/06/23 11:28:49;;;;;;;5.68;2.50;;;18.60;92.10;;;;;;5091758;28;20136;-89
2021/06/23 11:31:16;;;;;;;6.63;2.72;;;18.60;92.10;;;;;;5046761;28;20028;-88
2021/06/23 11:33:42;;;;;;;5.43;2.38;;;18.60;91.50;;;;;;5041077;28;20051;-88
2021/06/23 11:36:19;;;;;;;3.38;1.80;;;18.60;91.20;;;;;;5075485;28;20017;-89
2021/06/23 11:38:47;;;;;;;4.63;1.95;;;18.70;91.30;;;;;;5037528;28;20037;-89
2021/06/23 11:41:15;;;;;;;5.95;2.42;;;18.70;91.30;;;;;;5088401;28;20085;-88
2021/06/23 11:43:41;;;;;;;5.30;2.10;;;18.70;91.20;;;;;;5068180;28;20048;-89
2021/06/23 11:46:07;;;;;;;4.55;2.13;;;18.80;91.30;;;;;;5056342;28;20016;-89
2021/06/23 11:48:36;;;;;;;5.20;2.28;;;18.80;91.20;;;;;;5037514;28;20036;-89
2021/06/23 11:51:02;;;;;;;6.75;2.40;;;18.80;91.20;;;;;;5057265;28;20024;-89
2021/06/23 11:53:28;;;;;;;4.30;2.20;;;18.90;91.40;;;;;;5053397;28;20025;-88
2021/06/23 11:55:53;;;;;;;4.28;2.40;;;18.90;91.40;;;;;;5049924;28;20478;-89
2021/06/23 11:58:22;;;;;;;5.25;2.15;;;19.00;90.60;;;;;;5074882;28;20072;-89
2021/06/23 12:00:48;;;;;;;5.20;2.00;;;19.00;90.40;;;;;;5070470;28;20515;-89
2021/06/23 12:03:16;;;;;;;5.22;2.08;;;19.00;90.50;;;;;;5063043;28;20028;-89
2021/06/23 12:05:44;;;;;;;4.50;1.70;;;19.10;90.30;;;;;;5095221;28;20020;-89
2021/06/23 12:08:09;;;;;;;5.40;2.08;;;19.10;90.30;;;;;;5057870;28;20024;-89
2021/06/23 12:10:37;;;;;;;5.25;2.10;;;19.10;90.30;;;;;;5042982;28;20555;-89
2021/06/23 12:13:04;;;;;;;4.68;1.80;;;19.20;90.10;;;;;;5067365;28;20032;-90
2021/06/23 12:15:31;;;;;;;4.65;2.10;;;19.20;90.10;;;;;;5043051;28;20044;-89
2021/06/23 12:17:59;;;;;;;4.25;1.70;;;19.30;90.20;;;;;;5057119;28;20029;-89
2021/06/23 12:20:28;;;;;;;4.00;2.05;;;19.30;90.20;;;;;;5056803;28;20529;-89
2021/06/23 12:22:58;;;;;;;4.65;2.28;;;19.40;90.40;;;;;;5040503;28;20031;-89
2021/06/23 12:25:26;;;;;;;5.28;2.15;;;19.50;90.40;;;;;;5043796;28;20060;-89
2021/06/23 12:27:52;;;;;;;5.22;2.08;;;19.50;90.50;;;;;;5070745;28;20028;-88
2021/06/23 12:30:19;;;;;;;6.68;2.30;;;19.60;90.60;;;;;;5044583;28;20087;-89
2021/06/23 12:32:45;;;;;;;3.58;1.98;;;19.60;90.80;;;;;;5041940;28;20020;-89
2021/06/23 12:35:11;;;;;;;5.55;2.20;;;19.70;90.70;;;;;;5033448;28;20040;-89
2021/06/23 12:37:38;;;;;;;4.45;2.00;;;19.70;90.40;;;;;;5066249;28;20040;-89
2021/06/23 12:40:04;;;;;;;7.32;2.30;;;19.80;90.40;;;;;;5042460;28;20461;-90
2021/06/23 12:42:30;;;;;;;6.78;2.60;;;19.80;90.60;;;;;;5039883;28;20054;-89
2021/06/23 12:44:56;;;;;;;4.65;2.05;;;19.80;89.70;;;;;;5041659;28;20029;-89
2021/06/23 12:47:21;;;;;;;5.72;2.47;;;19.80;89.90;;;;;;5023461;28;20024;-89
2021/06/23 12:49:47;;;;;;;3.80;1.70;;;19.90;89.90;;;;;;5048983;28;20390;-89
2021/06/23 12:52:12;;;;;;;4.70;1.95;;;19.90;90.10;;;;;;5055889;28;20082;-89
2021/06/23 12:54:38;;;;;;;5.55;2.30;;;20.00;90.20;;;;;;5036510;28;20037;-88
2021/06/23 12:57:04;;;;;;;5.53;1.88;;;20.00;90.00;;;;;;5038491;28;20044;-89
2021/06/23 12:59:31;;;;;;;3.88;1.95;;;20.00;89.80;;;;;;5033258;28;20024;-89
2021/06/23 13:01:57;;;;;;;5.75;2.13;;;20.10;89.80;;;;;;5056032;28;20016;-89
2021/06/23 13:04:24;;;;;;;7.68;2.45;;;20.10;89.60;;;;;;5070128;28;20025;-90